sensor_id;sensor_type;location;lat;lon;timestamp;P1;durP1;ratioP1;P2;durP2;ratioP2
67640;SDS011;54434;50.096;20.082;2023-02-08T00:01:27;43.10;;;19.10;;
67640;SDS011;54434;50.096;20.082;2023-02-08T00:04:04;48.90;;;18.60;;
67640;SDS011;54434;50.096;20.082;2023-02-08T00:06:40;45.50;;;19.20;;
67640;SDS011;54434;50.096;20.082;2023-02-08T00:09:17;44.40;;;19.50;;
67640;SDS011;54434;50.096;20.082;2023-02-08T00:11:53;37.00;;;18.20;;
67640;SDS011;54434;50.096;20.082;2023-02-08T00:14:29;45.70;;;18.40;;
67640;SDS011;54434;50.096;20.082;2023-02-08T00:17:06;39.70;;;17.80;;
67640;SDS011;54434;50.096;20.082;2023-02-08T00:19:42;41.70;;;17.90;;
67640;SDS011;54434;50.096;20.082;2023-02-08T00:22:19;45.00;;;18.40;;
67640;SDS011;54434;50.096;20.082;2023-02-08T00:24:55;39.50;;;17.20;;
67640;SDS011;54434;50.096;20.082;2023-02-08T00:27:32;42.70;;;17.50;;
67640;SDS011;54434;50.096;20.082;2023-02-08T00:30:11;39.00;;;17.10;;
67640;SDS011;54434;50.096;20.082;2023-02-08T00:32:47;40.80;;;18.60;;
67640;SDS011;54434;50.096;20.082;2023-02-08T00:35:24;40.10;;;16.40;;
67640;SDS011;54434;50.096;20.082;2023-02-08T00:38:00;38.10;;;17.10;;
67640;SDS011;54434;50.096;20.082;2023-02-08T00:40:37;36.70;;;16.90;;
67640;SDS011;54434;50.096;20.082;2023-02-08T00:43:14;37.10;;;17.30;;
67640;SDS011;54434;50.096;20.082;2023-02-08T00:45:55;43.50;;;17.70;;
67640;SDS011;54434;50.096;20.082;2023-02-08T00:48:32;32.90;;;16.40;;
67640;SDS011;54434;50.096;20.082;2023-02-08T00:51:14;42.10;;;17.60;;
67640;SDS011;54434;50.096;20.082;2023-02-08T00:53:50;37.90;;;17.40;;
67640;SDS011;54434;50.096;20.082;2023-02-08T00:56:27;40.60;;;17.30;;
67640;SDS011;54434;50.096;20.082;2023-02-08T00:59:04;35.20;;;16.20;;
67640;SDS011;54434;50.096;20.082;2023-02-08T01:01:41;37.40;;;17.00;;
67640;SDS011;54434;50.096;20.082;2023-02-08T01:04:18;34.70;;;16.00;;
67640;SDS011;54434;50.096;20.082;2023-02-08T01:06:54;38.40;;;17.10;;
67640;SDS011;54434;50.096;20.082;2023-02-08T01:09:31;41.70;;;16.60;;
67640;SDS011;54434;50.096;20.082;2023-02-08T01:12:09;36.20;;;16.70;;
67640;SDS011;54434;50.096;20.082;2023-02-08T01:14:46;41.00;;;17.30;;
67640;SDS011;54434;50.096;20.082;2023-02-08T01:17:22;37.60;;;16.40;;
67640;SDS011;54434;50.096;20.082;2023-02-08T01:19:59;41.10;;;17.70;;
67640;SDS011;54434;50.096;20.082;2023-02-08T01:22:36;39.30;;;16.20;;
67640;SDS011;54434;50.096;20.082;2023-02-08T01:25:12;46.40;;;17.90;;
67640;SDS011;54434;50.096;20.082;2023-02-08T01:27:49;38.50;;;17.00;;
67640;SDS011;54434;50.096;20.082;2023-02-08T01:30:27;43.20;;;17.90;;
67640;SDS011;54434;50.096;20.082;2023-02-08T01:33:04;37.30;;;16.30;;
67640;SDS011;54434;50.096;20.082;2023-02-08T01:35:40;34.90;;;16.90;;
67640;SDS011;54434;50.096;20.082;2023-02-08T01:38:17;43.80;;;18.30;;
67640;SDS011;54434;50.096;20.082;2023-02-08T01:40:54;38.40;;;18.20;;
67640;SDS011;54434;50.096;20.082;2023-02-08T01:43:34;41.40;;;18.00;;
67640;SDS011;54434;50.096;20.082;2023-02-08T01:46:32;43.00;;;16.60;;
67640;SDS011;54434;50.096;20.082;2023-02-08T01:49:15;33.60;;;16.00;;
67640;SDS011;54434;50.096;20.082;2023-02-08T01:52:01;41.10;;;17.50;;
67640;SDS011;54434;50.096;20.082;2023-02-08T01:54:43;37.60;;;17.40;;
67640;SDS011;54434;50.096;20.082;2023-02-08T01:57:25;36.10;;;17.50;;
67640;SDS011;54434;50.096;20.082;2023-02-08T02:00:08;36.20;;;17.50;;
67640;SDS011;54434;50.096;20.082;2023-02-08T02:02:52;41.60;;;18.10;;
67640;SDS011;54434;50.096;20.082;2023-02-08T02:05:40;40.20;;;18.80;;
67640;SDS011;54434;50.096;20.082;2023-02-08T02:08:18;43.80;;;19.10;;
67640;SDS011;54434;50.096;20.082;2023-02-08T02:10:55;46.40;;;18.30;;
67640;SDS011;54434;50.096;20.082;2023-02-08T02:13:32;38.50;;;18.20;;
67640;SDS011;54434;50.096;20.082;2023-02-08T02:16:11;39.60;;;18.10;;
67640;SDS011;54434;50.096;20.082;2023-02-08T02:18:49;42.30;;;18.80;;
67640;SDS011;54434;50.096;20.082;2023-02-08T02:21:55;42.60;;;19.10;;
67640;SDS011;54434;50.096;20.082;2023-02-08T02:25:41;39.90;;;17.70;;
67640;SDS011;54434;50.096;20.082;2023-02-08T02:32:28;41.50;;;18.70;;
67640;SDS011;54434;50.096;20.082;2023-02-08T02:35:27;38.80;;;17.90;;
67640;SDS011;54434;50.096;20.082;2023-02-08T02:38:15;47.60;;;18.50;;
67640;SDS011;54434;50.096;20.082;2023-02-08T02:41:08;40.80;;;18.10;;
67640;SDS011;54434;50.096;20.082;2023-02-08T02:44:23;36.90;;;16.70;;
67640;SDS011;54434;50.096;20.082;2023-02-08T02:47:18;39.70;;;17.60;;
67640;SDS011;54434;50.096;20.082;2023-02-08T02:50:11;39.30;;;17.10;;
67640;SDS011;54434;50.096;20.082;2023-02-08T02:53:01;38.80;;;17.40;;
67640;SDS011;54434;50.096;20.082;2023-02-08T02:55:44;48.80;;;19.50;;
67640;SDS011;54434;50.096;20.082;2023-02-08T02:58:25;37.40;;;16.10;;
67640;SDS011;54434;50.096;20.082;2023-02-08T03:01:04;43.50;;;18.80;;
67640;SDS011;54434;50.096;20.082;2023-02-08T03:03:41;41.90;;;18.40;;
67640;SDS011;54434;50.096;20.082;2023-02-08T03:06:24;40.30;;;19.00;;
67640;SDS011;54434;50.096;20.082;2023-02-08T03:09:39;36.60;;;16.40;;
67640;SDS011;54434;50.096;20.082;2023-02-08T03:12:41;42.80;;;17.90;;
67640;SDS011;54434;50.096;20.082;2023-02-08T03:15:38;40.70;;;19.00;;
67640;SDS011;54434;50.096;20.082;2023-02-08T03:18:32;48.40;;;19.40;;
67640;SDS011;54434;50.096;20.082;2023-02-08T03:21:26;46.10;;;20.00;;
67640;SDS011;54434;50.096;20.082;2023-02-08T03:24:20;45.10;;;19.10;;
67640;SDS011;54434;50.096;20.082;2023-02-08T03:27:05;47.40;;;20.10;;
67640;SDS011;54434;50.096;20.082;2023-02-08T03:29:55;44.20;;;19.10;;
67640;SDS011;54434;50.096;20.082;2023-02-08T03:32:39;43.30;;;18.70;;
67640;SDS011;54434;50.096;20.082;2023-02-08T03:35:21;45.10;;;19.00;;
67640;SDS011;54434;50.096;20.082;2023-02-08T03:38:06;47.10;;;21.00;;
67640;SDS011;54434;50.096;20.082;2023-02-08T03:40:47;43.60;;;20.10;;
67640;SDS011;54434;50.096;20.082;2023-02-08T03:43:29;44.80;;;21.70;;
67640;SDS011;54434;50.096;20.082;2023-02-08T03:46:12;45.70;;;21.20;;
67640;SDS011;54434;50.096;20.082;2023-02-08T03:48:57;48.00;;;20.60;;
67640;SDS011;54434;50.096;20.082;2023-02-08T03:51:37;53.10;;;23.70;;
67640;SDS011;54434;50.096;20.082;2023-02-08T03:54:17;45.50;;;21.60;;
67640;SDS011;54434;50.096;20.082;2023-02-08T03:57:05;50.90;;;22.30;;
67640;SDS011;54434;50.096;20.082;2023-02-08T03:59:53;45.20;;;20.00;;
67640;SDS011;54434;50.096;20.082;2023-02-08T04:02:38;49.10;;;23.20;;
67640;SDS011;54434;50.096;20.082;2023-02-08T04:05:19;47.90;;;20.70;;
67640;SDS011;54434;50.096;20.082;2023-02-08T04:07:57;49.10;;;21.80;;
67640;SDS011;54434;50.096;20.082;2023-02-08T04:10:33;47.60;;;21.90;;
67640;SDS011;54434;50.096;20.082;2023-02-08T04:13:09;47.80;;;21.40;;
67640;SDS011;54434;50.096;20.082;2023-02-08T04:15:45;42.70;;;20.20;;
67640;SDS011;54434;50.096;20.082;2023-02-08T04:18:22;45.80;;;21.30;;
67640;SDS011;54434;50.096;20.082;2023-02-08T04:20:58;48.40;;;21.50;;
67640;SDS011;54434;50.096;20.082;2023-02-08T04:23:34;49.30;;;21.80;;
67640;SDS011;54434;50.096;20.082;2023-02-08T04:26:11;41.10;;;18.10;;
67640;SDS011;54434;50.096;20.082;2023-02-08T04:28:47;48.10;;;19.80;;
67640;SDS011;54434;50.096;20.082;2023-02-08T04:31:24;39.20;;;19.20;;
67640;SDS011;54434;50.096;20.082;2023-02-08T04:34:00;40.40;;;19.10;;
67640;SDS011;54434;50.096;20.082;2023-02-08T04:36:37;50.50;;;21.80;;
67640;SDS011;54434;50.096;20.082;2023-02-08T04:39:13;55.20;;;21.50;;
67640;SDS011;54434;50.096;20.082;2023-02-08T04:41:49;51.00;;;20.10;;
67640;SDS011;54434;50.096;20.082;2023-02-08T04:44:26;54.70;;;22.70;;
67640;SDS011;54434;50.096;20.082;2023-02-08T04:47:05;57.80;;;24.00;;
67640;SDS011;54434;50.096;20.082;2023-02-08T04:49:41;52.80;;;22.90;;
67640;SDS011;54434;50.096;20.082;2023-02-08T04:52:17;50.70;;;23.50;;
67640;SDS011;54434;50.096;20.082;2023-02-08T04:54:54;55.80;;;24.20;;
67640;SDS011;54434;50.096;20.082;2023-02-08T04:57:30;55.10;;;23.40;;
67640;SDS011;54434;50.096;20.082;2023-02-08T05:00:09;46.50;;;21.30;;
67640;SDS011;54434;50.096;20.082;2023-02-08T05:02:46;62.20;;;26.70;;
67640;SDS011;54434;50.096;20.082;2023-02-08T05:05:26;51.50;;;20.60;;
67640;SDS011;54434;50.096;20.082;2023-02-08T05:08:03;60.80;;;25.70;;
67640;SDS011;54434;50.096;20.082;2023-02-08T05:10:44;52.40;;;24.00;;
67640;SDS011;54434;50.096;20.082;2023-02-08T05:13:20;59.70;;;23.80;;
67640;SDS011;54434;50.096;20.082;2023-02-08T05:15:57;45.10;;;19.20;;
67640;SDS011;54434;50.096;20.082;2023-02-08T05:18:34;65.50;;;27.30;;
67640;SDS011;54434;50.096;20.082;2023-02-08T05:21:10;74.30;;;31.70;;
67640;SDS011;54434;50.096;20.082;2023-02-08T05:23:47;73.30;;;30.60;;
67640;SDS011;54434;50.096;20.082;2023-02-08T05:26:23;77.00;;;31.50;;
67640;SDS011;54434;50.096;20.082;2023-02-08T05:28:59;58.80;;;27.70;;
67640;SDS011;54434;50.096;20.082;2023-02-08T05:31:36;76.50;;;30.20;;
67640;SDS011;54434;50.096;20.082;2023-02-08T05:34:12;93.10;;;35.20;;
67640;SDS011;54434;50.096;20.082;2023-02-08T05:36:49;75.10;;;32.10;;
67640;SDS011;54434;50.096;20.082;2023-02-08T05:39:25;80.10;;;31.60;;
67640;SDS011;54434;50.096;20.082;2023-02-08T05:42:02;67.70;;;29.80;;
67640;SDS011;54434;50.096;20.082;2023-02-08T05:44:38;79.70;;;33.60;;
67640;SDS011;54434;50.096;20.082;2023-02-08T05:47:15;80.70;;;35.50;;
67640;SDS011;54434;50.096;20.082;2023-02-08T05:49:51;75.90;;;33.30;;
67640;SDS011;54434;50.096;20.082;2023-02-08T05:52:27;89.90;;;34.00;;
67640;SDS011;54434;50.096;20.082;2023-02-08T05:55:04;95.70;;;36.00;;
67640;SDS011;54434;50.096;20.082;2023-02-08T05:57:42;67.40;;;27.70;;
67640;SDS011;54434;50.096;20.082;2023-02-08T06:00:19;67.50;;;27.30;;
67640;SDS011;54434;50.096;20.082;2023-02-08T06:02:57;70.20;;;26.40;;
67640;SDS011;54434;50.096;20.082;2023-02-08T06:05:35;73.60;;;30.60;;
67640;SDS011;54434;50.096;20.082;2023-02-08T06:08:13;89.00;;;34.20;;
67640;SDS011;54434;50.096;20.082;2023-02-08T06:10:51;79.60;;;33.30;;
67640;SDS011;54434;50.096;20.082;2023-02-08T06:13:28;93.80;;;34.40;;
67640;SDS011;54434;50.096;20.082;2023-02-08T06:16:05;80.50;;;34.60;;
67640;SDS011;54434;50.096;20.082;2023-02-08T06:18:42;78.60;;;32.30;;
67640;SDS011;54434;50.096;20.082;2023-02-08T06:21:18;84.80;;;34.80;;
67640;SDS011;54434;50.096;20.082;2023-02-08T06:23:56;88.50;;;35.30;;
67640;SDS011;54434;50.096;20.082;2023-02-08T06:26:33;83.90;;;33.40;;
67640;SDS011;54434;50.096;20.082;2023-02-08T06:29:10;82.60;;;35.30;;
67640;SDS011;54434;50.096;20.082;2023-02-08T06:31:46;94.50;;;37.80;;
67640;SDS011;54434;50.096;20.082;2023-02-08T06:34:23;91.40;;;36.00;;
67640;SDS011;54434;50.096;20.082;2023-02-08T06:36:59;71.90;;;31.10;;
67640;SDS011;54434;50.096;20.082;2023-02-08T06:39:38;95.10;;;37.50;;
67640;SDS011;54434;50.096;20.082;2023-02-08T06:42:14;93.60;;;36.40;;
67640;SDS011;54434;50.096;20.082;2023-02-08T06:44:50;90.50;;;37.40;;
67640;SDS011;54434;50.096;20.082;2023-02-08T06:47:29;102.00;;;39.10;;
67640;SDS011;54434;50.096;20.082;2023-02-08T06:50:06;90.00;;;36.50;;
67640;SDS011;54434;50.096;20.082;2023-02-08T06:52:43;83.10;;;35.80;;
67640;SDS011;54434;50.096;20.082;2023-02-08T06:55:20;94.20;;;36.60;;
67640;SDS011;54434;50.096;20.082;2023-02-08T06:57:57;96.10;;;38.70;;
67640;SDS011;54434;50.096;20.082;2023-02-08T07:00:33;96.50;;;40.10;;
67640;SDS011;54434;50.096;20.082;2023-02-08T07:03:13;106.50;;;38.90;;
67640;SDS011;54434;50.096;20.082;2023-02-08T07:05:50;96.70;;;38.70;;
67640;SDS011;54434;50.096;20.082;2023-02-08T07:08:37;92.60;;;36.50;;
67640;SDS011;54434;50.096;20.082;2023-02-08T07:11:17;80.20;;;35.60;;
67640;SDS011;54434;50.096;20.082;2023-02-08T07:13:55;108.80;;;41.10;;
67640;SDS011;54434;50.096;20.082;2023-02-08T07:16:37;84.40;;;36.20;;
67640;SDS011;54434;50.096;20.082;2023-02-08T07:19:13;103.40;;;41.60;;
67640;SDS011;54434;50.096;20.082;2023-02-08T07:21:50;101.40;;;39.20;;
67640;SDS011;54434;50.096;20.082;2023-02-08T07:24:26;90.00;;;38.50;;
67640;SDS011;54434;50.096;20.082;2023-02-08T07:27:04;88.20;;;36.90;;
67640;SDS011;54434;50.096;20.082;2023-02-08T07:29:42;82.60;;;33.60;;
67640;SDS011;54434;50.096;20.082;2023-02-08T07:32:18;73.30;;;34.20;;
67640;SDS011;54434;50.096;20.082;2023-02-08T07:34:55;89.60;;;37.50;;
67640;SDS011;54434;50.096;20.082;2023-02-08T07:37:31;77.80;;;32.70;;
67640;SDS011;54434;50.096;20.082;2023-02-08T07:40:10;70.20;;;30.40;;
67640;SDS011;54434;50.096;20.082;2023-02-08T07:42:47;71.50;;;31.00;;
67640;SDS011;54434;50.096;20.082;2023-02-08T07:45:29;68.80;;;32.20;;
67640;SDS011;54434;50.096;20.082;2023-02-08T07:48:06;70.40;;;31.00;;
67640;SDS011;54434;50.096;20.082;2023-02-08T07:50:43;60.30;;;28.20;;
67640;SDS011;54434;50.096;20.082;2023-02-08T07:53:19;52.60;;;25.00;;
67640;SDS011;54434;50.096;20.082;2023-02-08T07:55:55;66.40;;;31.90;;
67640;SDS011;54434;50.096;20.082;2023-02-08T07:58:32;67.60;;;29.10;;
67640;SDS011;54434;50.096;20.082;2023-02-08T08:01:09;58.80;;;27.80;;
67640;SDS011;54434;50.096;20.082;2023-02-08T08:03:54;53.20;;;24.40;;
67640;SDS011;54434;50.096;20.082;2023-02-08T08:06:30;46.30;;;22.90;;
67640;SDS011;54434;50.096;20.082;2023-02-08T08:09:07;90.80;;;36.10;;
67640;SDS011;54434;50.096;20.082;2023-02-08T08:11:44;58.60;;;27.30;;
67640;SDS011;54434;50.096;20.082;2023-02-08T08:14:20;44.80;;;21.30;;
67640;SDS011;54434;50.096;20.082;2023-02-08T08:16:57;42.30;;;19.10;;
67640;SDS011;54434;50.096;20.082;2023-02-08T08:19:33;48.50;;;21.70;;
67640;SDS011;54434;50.096;20.082;2023-02-08T08:22:10;39.60;;;17.20;;
67640;SDS011;54434;50.096;20.082;2023-02-08T08:24:46;42.10;;;18.90;;
67640;SDS011;54434;50.096;20.082;2023-02-08T08:27:22;34.10;;;16.10;;
67640;SDS011;54434;50.096;20.082;2023-02-08T08:29:59;43.30;;;18.70;;
67640;SDS011;54434;50.096;20.082;2023-02-08T08:32:37;36.90;;;17.90;;
67640;SDS011;54434;50.096;20.082;2023-02-08T08:35:13;40.70;;;17.10;;
67640;SDS011;54434;50.096;20.082;2023-02-08T08:37:50;41.00;;;18.00;;
67640;SDS011;54434;50.096;20.082;2023-02-08T08:40:26;44.50;;;19.20;;
67640;SDS011;54434;50.096;20.082;2023-02-08T08:43:02;40.00;;;18.50;;
67640;SDS011;54434;50.096;20.082;2023-02-08T08:45:39;36.10;;;16.90;;
67640;SDS011;54434;50.096;20.082;2023-02-08T08:48:15;44.70;;;19.50;;
67640;SDS011;54434;50.096;20.082;2023-02-08T08:50:52;48.30;;;20.10;;
67640;SDS011;54434;50.096;20.082;2023-02-08T08:53:28;46.60;;;20.10;;
67640;SDS011;54434;50.096;20.082;2023-02-08T08:56:06;38.50;;;17.30;;
67640;SDS011;54434;50.096;20.082;2023-02-08T08:58:43;40.10;;;18.20;;
67640;SDS011;54434;50.096;20.082;2023-02-08T09:01:19;42.80;;;17.90;;
67640;SDS011;54434;50.096;20.082;2023-02-08T09:03:56;39.60;;;17.80;;
67640;SDS011;54434;50.096;20.082;2023-02-08T09:06:32;38.90;;;18.00;;
67640;SDS011;54434;50.096;20.082;2023-02-08T09:09:09;46.20;;;19.80;;
67640;SDS011;54434;50.096;20.082;2023-02-08T09:11:45;37.00;;;18.00;;
67640;SDS011;54434;50.096;20.082;2023-02-08T09:14:22;45.40;;;19.60;;
67640;SDS011;54434;50.096;20.082;2023-02-08T09:16:59;37.50;;;16.80;;
67640;SDS011;54434;50.096;20.082;2023-02-08T09:19:35;39.10;;;18.60;;
67640;SDS011;54434;50.096;20.082;2023-02-08T09:22:12;41.90;;;18.60;;
67640;SDS011;54434;50.096;20.082;2023-02-08T09:24:50;36.70;;;16.90;;
67640;SDS011;54434;50.096;20.082;2023-02-08T09:27:27;38.10;;;17.40;;
67640;SDS011;54434;50.096;20.082;2023-02-08T09:30:04;39.30;;;17.30;;
67640;SDS011;54434;50.096;20.082;2023-02-08T09:32:42;37.40;;;18.30;;
67640;SDS011;54434;50.096;20.082;2023-02-08T09:35:18;34.40;;;16.60;;
67640;SDS011;54434;50.096;20.082;2023-02-08T09:37:56;28.10;;;14.00;;
67640;SDS011;54434;50.096;20.082;2023-02-08T09:40:44;33.50;;;14.00;;
67640;SDS011;54434;50.096;20.082;2023-02-08T09:43:32;33.20;;;14.90;;
67640;SDS011;54434;50.096;20.082;2023-02-08T09:46:19;27.80;;;13.20;;
67640;SDS011;54434;50.096;20.082;2023-02-08T09:48:59;31.40;;;13.70;;
67640;SDS011;54434;50.096;20.082;2023-02-08T09:51:44;30.70;;;14.00;;
67640;SDS011;54434;50.096;20.082;2023-02-08T09:54:29;28.30;;;14.80;;
67640;SDS011;54434;50.096;20.082;2023-02-08T09:57:15;34.90;;;15.70;;
67640;SDS011;54434;50.096;20.082;2023-02-08T09:59:58;35.70;;;16.00;;
67640;SDS011;54434;50.096;20.082;2023-02-08T10:02:38;32.10;;;15.30;;
67640;SDS011;54434;50.096;20.082;2023-02-08T10:05:21;33.50;;;14.50;;
67640;SDS011;54434;50.096;20.082;2023-02-08T10:08:01;34.20;;;15.50;;
67640;SDS011;54434;50.096;20.082;2023-02-08T10:10:49;28.80;;;14.70;;
67640;SDS011;54434;50.096;20.082;2023-02-08T10:13:51;33.20;;;15.40;;
67640;SDS011;54434;50.096;20.082;2023-02-08T10:16:51;31.40;;;14.80;;
67640;SDS011;54434;50.096;20.082;2023-02-08T10:19:51;32.70;;;15.50;;
67640;SDS011;54434;50.096;20.082;2023-02-08T10:22:47;36.50;;;16.10;;
67640;SDS011;54434;50.096;20.082;2023-02-08T10:25:48;32.90;;;14.30;;
67640;SDS011;54434;50.096;20.082;2023-02-08T10:29:27;34.20;;;15.90;;
67640;SDS011;54434;50.096;20.082;2023-02-08T10:32:33;33.50;;;16.40;;
67640;SDS011;54434;50.096;20.082;2023-02-08T10:35:31;32.00;;;15.60;;
67640;SDS011;54434;50.096;20.082;2023-02-08T10:38:26;31.90;;;15.40;;
67640;SDS011;54434;50.096;20.082;2023-02-08T10:41:21;28.00;;;12.50;;
67640;SDS011;54434;50.096;20.082;2023-02-08T10:44:08;32.10;;;14.80;;
67640;SDS011;54434;50.096;20.082;2023-02-08T10:46:58;29.30;;;15.00;;
67640;SDS011;54434;50.096;20.082;2023-02-08T10:49:49;30.20;;;13.60;;
67640;SDS011;54434;50.096;20.082;2023-02-08T10:52:31;31.90;;;14.90;;
67640;SDS011;54434;50.096;20.082;2023-02-08T10:55:15;30.50;;;14.10;;
67640;SDS011;54434;50.096;20.082;2023-02-08T10:57:57;29.10;;;13.10;;
67640;SDS011;54434;50.096;20.082;2023-02-08T11:00:37;28.50;;;14.20;;
67640;SDS011;54434;50.096;20.082;2023-02-08T11:03:20;21.50;;;10.90;;
67640;SDS011;54434;50.096;20.082;2023-02-08T11:05:58;28.30;;;13.40;;
67640;SDS011;54434;50.096;20.082;2023-02-08T11:08:54;27.10;;;13.40;;
67640;SDS011;54434;50.096;20.082;2023-02-08T11:11:36;28.20;;;13.90;;
67640;SDS011;54434;50.096;20.082;2023-02-08T11:14:22;32.20;;;15.20;;
67640;SDS011;54434;50.096;20.082;2023-02-08T11:17:32;29.20;;;14.60;;
67640;SDS011;54434;50.096;20.082;2023-02-08T11:20:23;29.50;;;13.60;;
67640;SDS011;54434;50.096;20.082;2023-02-08T11:23:14;31.50;;;14.20;;
67640;SDS011;54434;50.096;20.082;2023-02-08T11:26:15;28.90;;;14.70;;
67640;SDS011;54434;50.096;20.082;2023-02-08T11:29:11;30.60;;;13.50;;
67640;SDS011;54434;50.096;20.082;2023-02-08T11:32:01;32.20;;;13.70;;
67640;SDS011;54434;50.096;20.082;2023-02-08T11:34:48;29.20;;;13.40;;
67640;SDS011;54434;50.096;20.082;2023-02-08T11:37:25;34.10;;;15.60;;
67640;SDS011;54434;50.096;20.082;2023-02-08T11:40:02;30.70;;;14.20;;
67640;SDS011;54434;50.096;20.082;2023-02-08T11:42:43;36.40;;;13.60;;
67640;SDS011;54434;50.096;20.082;2023-02-08T11:45:24;29.70;;;14.00;;
67640;SDS011;54434;50.096;20.082;2023-02-08T11:48:04;31.30;;;13.80;;
67640;SDS011;54434;50.096;20.082;2023-02-08T11:50:59;31.00;;;14.80;;
67640;SDS011;54434;50.096;20.082;2023-02-08T11:53:39;28.40;;;14.00;;
67640;SDS011;54434;50.096;20.082;2023-02-08T11:56:22;30.00;;;12.90;;
67640;SDS011;54434;50.096;20.082;2023-02-08T11:59:20;31.00;;;13.20;;
67640;SDS011;54434;50.096;20.082;2023-02-08T12:02:21;27.90;;;12.90;;
67640;SDS011;54434;50.096;20.082;2023-02-08T12:05:05;29.50;;;13.40;;
67640;SDS011;54434;50.096;20.082;2023-02-08T12:08:06;34.00;;;15.40;;
67640;SDS011;54434;50.096;20.082;2023-02-08T12:11:13;25.70;;;13.00;;
67640;SDS011;54434;50.096;20.082;2023-02-08T12:14:31;29.90;;;14.60;;
67640;SDS011;54434;50.096;20.082;2023-02-08T12:17:43;28.60;;;14.40;;
67640;SDS011;54434;50.096;20.082;2023-02-08T12:20:39;34.00;;;15.50;;
67640;SDS011;54434;50.096;20.082;2023-02-08T12:23:43;32.80;;;15.10;;
67640;SDS011;54434;50.096;20.082;2023-02-08T12:26:36;32.20;;;14.50;;
67640;SDS011;54434;50.096;20.082;2023-02-08T12:29:37;31.70;;;15.10;;
67640;SDS011;54434;50.096;20.082;2023-02-08T12:32:48;29.00;;;14.10;;
67640;SDS011;54434;50.096;20.082;2023-02-08T12:36:21;30.00;;;13.70;;
67640;SDS011;54434;50.096;20.082;2023-02-08T12:39:29;30.70;;;13.50;;
67640;SDS011;54434;50.096;20.082;2023-02-08T12:42:51;26.40;;;14.20;;
67640;SDS011;54434;50.096;20.082;2023-02-08T12:46:12;25.30;;;13.50;;
67640;SDS011;54434;50.096;20.082;2023-02-08T12:49:29;23.80;;;12.20;;
67640;SDS011;54434;50.096;20.082;2023-02-08T12:52:28;25.30;;;12.70;;
67640;SDS011;54434;50.096;20.082;2023-02-08T12:55:17;21.10;;;10.50;;
67640;SDS011;54434;50.096;20.082;2023-02-08T12:58:02;23.80;;;11.80;;
67640;SDS011;54434;50.096;20.082;2023-02-08T13:03:37;20.40;;;10.60;;
67640;SDS011;54434;50.096;20.082;2023-02-08T13:06:22;21.20;;;11.60;;
67640;SDS011;54434;50.096;20.082;2023-02-08T13:09:07;20.40;;;9.70;;
67640;SDS011;54434;50.096;20.082;2023-02-08T13:11:54;22.90;;;10.80;;
67640;SDS011;54434;50.096;20.082;2023-02-08T13:14:36;19.90;;;9.70;;
67640;SDS011;54434;50.096;20.082;2023-02-08T13:17:22;19.60;;;9.80;;
67640;SDS011;54434;50.096;20.082;2023-02-08T13:20:04;20.50;;;10.20;;
67640;SDS011;54434;50.096;20.082;2023-02-08T13:22:51;16.70;;;9.20;;
67640;SDS011;54434;50.096;20.082;2023-02-08T13:25:33;18.90;;;10.00;;
67640;SDS011;54434;50.096;20.082;2023-02-08T13:28:19;18.60;;;9.30;;
67640;SDS011;54434;50.096;20.082;2023-02-08T13:31:03;19.50;;;9.60;;
67640;SDS011;54434;50.096;20.082;2023-02-08T13:33:47;16.00;;;8.50;;
67640;SDS011;54434;50.096;20.082;2023-02-08T13:36:36;15.00;;;8.00;;
67640;SDS011;54434;50.096;20.082;2023-02-08T13:39:36;19.90;;;9.20;;
67640;SDS011;54434;50.096;20.082;2023-02-08T13:42:26;16.30;;;8.90;;
67640;SDS011;54434;50.096;20.082;2023-02-08T13:45:06;17.40;;;8.30;;
67640;SDS011;54434;50.096;20.082;2023-02-08T13:47:48;16.80;;;8.10;;
67640;SDS011;54434;50.096;20.082;2023-02-08T13:50:46;18.40;;;9.00;;
67640;SDS011;54434;50.096;20.082;2023-02-08T13:54:08;19.40;;;9.50;;
67640;SDS011;54434;50.096;20.082;2023-02-08T13:56:48;19.40;;;9.10;;
67640;SDS011;54434;50.096;20.082;2023-02-08T13:59:32;17.80;;;8.80;;
67640;SDS011;54434;50.096;20.082;2023-02-08T14:02:36;16.80;;;8.50;;
67640;SDS011;54434;50.096;20.082;2023-02-08T14:05:50;16.80;;;8.50;;
67640;SDS011;54434;50.096;20.082;2023-02-08T14:08:35;18.80;;;8.80;;
67640;SDS011;54434;50.096;20.082;2023-02-08T14:11:26;18.00;;;8.00;;
67640;SDS011;54434;50.096;20.082;2023-02-08T14:14:19;18.10;;;9.10;;
67640;SDS011;54434;50.096;20.082;2023-02-08T14:17:25;18.70;;;8.90;;
67640;SDS011;54434;50.096;20.082;2023-02-08T14:20:06;16.20;;;8.50;;
67640;SDS011;54434;50.096;20.082;2023-02-08T14:22:55;19.80;;;10.10;;
67640;SDS011;54434;50.096;20.082;2023-02-08T14:25:44;21.60;;;8.90;;
67640;SDS011;54434;50.096;20.082;2023-02-08T14:28:29;20.30;;;9.60;;
67640;SDS011;54434;50.096;20.082;2023-02-08T14:31:10;17.70;;;9.20;;
67640;SDS011;54434;50.096;20.082;2023-02-08T14:33:55;14.20;;;7.80;;
67640;SDS011;54434;50.096;20.082;2023-02-08T14:36:33;16.50;;;8.80;;
67640;SDS011;54434;50.096;20.082;2023-02-08T14:39:25;15.60;;;8.00;;
67640;SDS011;54434;50.096;20.082;2023-02-08T14:42:07;18.50;;;8.90;;
67640;SDS011;54434;50.096;20.082;2023-02-08T14:45:03;16.00;;;8.30;;
67640;SDS011;54434;50.096;20.082;2023-02-08T14:48:22;15.40;;;7.60;;
67640;SDS011;54434;50.096;20.082;2023-02-08T14:51:13;13.10;;;6.50;;
67640;SDS011;54434;50.096;20.082;2023-02-08T14:53:57;14.60;;;6.90;;
67640;SDS011;54434;50.096;20.082;2023-02-08T14:56:53;15.20;;;6.80;;
67640;SDS011;54434;50.096;20.082;2023-02-08T14:59:36;16.80;;;7.60;;
67640;SDS011;54434;50.096;20.082;2023-02-08T15:02:22;17.50;;;8.10;;
67640;SDS011;54434;50.096;20.082;2023-02-08T15:05:04;13.10;;;6.10;;
67640;SDS011;54434;50.096;20.082;2023-02-08T15:07:55;16.70;;;7.70;;
67640;SDS011;54434;50.096;20.082;2023-02-08T15:10:33;13.80;;;7.10;;
67640;SDS011;54434;50.096;20.082;2023-02-08T15:13:22;15.50;;;6.90;;
67640;SDS011;54434;50.096;20.082;2023-02-08T15:16:00;16.70;;;7.50;;
67640;SDS011;54434;50.096;20.082;2023-02-08T15:18:38;13.40;;;7.10;;
67640;SDS011;54434;50.096;20.082;2023-02-08T15:21:21;14.20;;;7.50;;
67640;SDS011;54434;50.096;20.082;2023-02-08T15:24:12;17.20;;;8.30;;
67640;SDS011;54434;50.096;20.082;2023-02-08T15:26:52;18.70;;;8.40;;
67640;SDS011;54434;50.096;20.082;2023-02-08T15:29:30;18.70;;;8.20;;
67640;SDS011;54434;50.096;20.082;2023-02-08T15:32:20;17.80;;;8.20;;
67640;SDS011;54434;50.096;20.082;2023-02-08T15:35:02;16.80;;;7.90;;
67640;SDS011;54434;50.096;20.082;2023-02-08T15:37:39;20.70;;;9.30;;
67640;SDS011;54434;50.096;20.082;2023-02-08T15:40:27;21.10;;;9.60;;
67640;SDS011;54434;50.096;20.082;2023-02-08T15:43:12;23.90;;;9.40;;
67640;SDS011;54434;50.096;20.082;2023-02-08T15:45:57;21.60;;;9.70;;
67640;SDS011;54434;50.096;20.082;2023-02-08T15:48:44;21.60;;;9.90;;
67640;SDS011;54434;50.096;20.082;2023-02-08T15:51:22;26.40;;;10.70;;
67640;SDS011;54434;50.096;20.082;2023-02-08T15:53:59;21.10;;;9.80;;